createdAt,value
2018-12-17T00:00:56.553Z,34.27
2018-12-17T00:03:25.617Z,28.80
2018-12-17T00:05:54.739Z,35.83
2018-12-17T00:08:23.833Z,31.30
2018-12-17T00:10:52.932Z,36.83
2018-12-17T00:13:22.005Z,37.90
2018-12-17T00:15:51.046Z,36.50
2018-12-17T00:18:20.121Z,41.20
2018-12-17T00:20:49.184Z,44.10
2018-12-17T00:23:18.226Z,41.70
2018-12-17T00:25:47.286Z,46.70
2018-12-17T00:28:16.461Z,46.00
2018-12-17T00:30:45.531Z,47.30
2018-12-17T00:33:14.589Z,44.97
2018-12-17T00:35:43.686Z,39.73
2018-12-17T00:38:12.710Z,44.83
2018-12-17T00:40:41.782Z,45.47
2018-12-17T00:43:10.812Z,42.73
2018-12-17T00:45:39.882Z,36.97
2018-12-17T00:48:08.922Z,47.03
2018-12-17T00:50:37.989Z,48.00
2018-12-17T00:53:07.087Z,46.17
2018-12-17T00:55:36.163Z,45.67
2018-12-17T00:58:05.285Z,40.50
2018-12-17T01:00:34.345Z,42.70
2018-12-17T01:03:03.381Z,40.70
2018-12-17T01:05:32.449Z,47.77
2018-12-17T01:08:01.535Z,43.70
2018-12-17T01:10:30.569Z,44.60
2018-12-17T01:12:59.641Z,44.97
2018-12-17T01:15:28.673Z,43.20
2018-12-17T01:17:57.748Z,37.23
2018-12-17T01:20:26.870Z,33.40
2018-12-17T01:22:55.938Z,42.10
2018-12-17T01:25:25.017Z,37.53
2018-12-17T01:27:54.090Z,43.23
2018-12-17T01:30:23.149Z,43.50
2018-12-17T01:32:52.269Z,36.73
2018-12-17T01:35:21.393Z,36.03
2018-12-17T01:37:50.473Z,38.00
2018-12-17T01:40:19.587Z,27.77
2018-12-17T01:42:48.701Z,28.20
2018-12-17T01:45:17.799Z,26.27
2018-12-17T01:47:46.869Z,30.57
2018-12-17T01:50:15.934Z,24.33
2018-12-17T01:52:44.991Z,30.90
2018-12-17T01:55:14.124Z,25.83
2018-12-17T01:57:43.169Z,32.57
2018-12-17T02:00:12.372Z,37.00
2018-12-17T02:02:41.459Z,37.20
2018-12-17T02:05:10.487Z,34.03
2018-12-17T02:07:39.543Z,33.27
2018-12-17T02:10:08.693Z,33.63
2018-12-17T02:12:37.758Z,37.47
2018-12-17T02:15:06.872Z,33.17
2018-12-17T02:17:35.947Z,34.33
2018-12-17T02:20:05.802Z,34.20
2018-12-17T02:22:34.865Z,36.70
2018-12-17T02:25:04.198Z,36.97
2018-12-17T02:27:33.265Z,42.57
2018-12-17T02:30:02.330Z,39.20
2018-12-17T02:32:31.401Z,34.20
2018-12-17T02:35:00.446Z,33.23
2018-12-17T02:37:29.527Z,36.43
2018-12-17T02:39:58.552Z,37.30
2018-12-17T02:42:27.615Z,38.03
2018-12-17T02:44:56.650Z,41.07
2018-12-17T02:47:25.788Z,35.33
2018-12-17T02:49:54.832Z,33.60
2018-12-17T02:52:23.888Z,33.40
2018-12-17T02:54:52.953Z,31.67
2018-12-17T02:57:22.024Z,34.20
2018-12-17T02:59:51.064Z,31.90
2018-12-17T03:02:20.129Z,31.23
2018-12-17T03:04:49.234Z,33.30
2018-12-17T03:07:18.308Z,26.63
2018-12-17T03:09:47.358Z,21.27
2018-12-17T03:12:16.388Z,24.60
2018-12-17T03:14:45.460Z,28.07
2018-12-17T03:17:14.503Z,24.40
2018-12-17T03:19:43.570Z,25.23
2018-12-17T03:22:12.611Z,27.80
2018-12-17T03:24:41.686Z,28.20
2018-12-17T03:27:10.746Z,29.60
2018-12-17T03:29:39.790Z,30.87
2018-12-17T03:32:08.856Z,33.07
2018-12-17T03:34:37.910Z,30.47
2018-12-17T03:37:07.006Z,34.83
2018-12-17T03:39:36.077Z,33.13
2018-12-17T03:42:05.151Z,32.80
2018-12-17T03:44:34.198Z,31.83
2018-12-17T03:47:03.277Z,34.63
2018-12-17T03:49:32.320Z,28.90
2018-12-17T03:52:01.356Z,31.67
2018-12-17T03:54:30.429Z,33.80
2018-12-17T03:56:59.510Z,30.77
2018-12-17T03:59:28.578Z,31.87
2018-12-17T04:01:57.646Z,28.43
2018-12-17T04:04:26.712Z,30.90
2018-12-17T04:06:55.753Z,32.00
2018-12-17T04:09:24.821Z,33.47
2018-12-17T04:11:53.869Z,29.10
2018-12-17T04:14:22.961Z,34.10
2018-12-17T04:16:52.044Z,28.80
2018-12-17T04:19:21.090Z,25.17
2018-12-17T04:21:50.248Z,29.20
2018-12-17T04:24:19.293Z,31.57
2018-12-17T04:26:48.362Z,27.43
2018-12-17T04:29:17.402Z,31.10
2018-12-17T04:31:46.439Z,26.00
2018-12-17T04:34:15.521Z,25.93
2018-12-17T04:36:44.555Z,27.87
2018-12-17T04:39:13.614Z,26.27
2018-12-17T04:41:42.652Z,30.07
2018-12-17T04:44:11.706Z,29.30
2018-12-17T04:46:40.760Z,26.33
2018-12-17T04:49:09.868Z,25.07
2018-12-17T04:51:38.910Z,31.10
2018-12-17T04:54:07.979Z,29.93
2018-12-17T04:56:37.024Z,31.83
2018-12-17T04:59:06.085Z,34.10
2018-12-17T05:01:35.177Z,23.63
2018-12-17T05:04:04.333Z,27.47
2018-12-17T05:06:33.374Z,28.70
2018-12-17T05:09:02.418Z,33.67
2018-12-17T05:11:31.482Z,28.80
2018-12-17T05:14:00.525Z,28.90
2018-12-17T05:16:29.825Z,31.30
2018-12-17T05:18:58.864Z,24.20
2018-12-17T05:21:27.946Z,30.50
2018-12-17T05:23:56.989Z,24.10
2018-12-17T05:26:26.025Z,28.37
2018-12-17T05:28:57.018Z,25.00
2018-12-17T05:31:26.184Z,27.47
2018-12-17T05:33:55.239Z,27.60
2018-12-17T05:36:25.178Z,25.03
2018-12-17T05:38:54.257Z,25.37
2018-12-17T05:41:23.345Z,24.83
2018-12-17T05:43:52.381Z,25.53
2018-12-17T05:46:21.446Z,24.03
2018-12-17T05:48:50.494Z,28.90
2018-12-17T05:51:19.689Z,26.90
2018-12-17T05:53:48.873Z,28.87
2018-12-17T05:56:17.901Z,25.90
2018-12-17T05:58:47.043Z,28.07
2018-12-17T06:01:16.082Z,30.30
2018-12-17T06:03:45.145Z,27.33
2018-12-17T06:06:14.211Z,25.63
2018-12-17T06:08:43.285Z,31.10
2018-12-17T06:11:12.381Z,24.13
2018-12-17T06:13:41.494Z,24.10
2018-12-17T06:16:10.543Z,28.57
2018-12-17T06:18:40.382Z,26.43
2018-12-17T06:21:09.426Z,28.77
2018-12-17T06:23:38.523Z,47.33
2018-12-17T06:26:07.636Z,70.43
2018-12-17T06:28:36.814Z,105.80
2018-12-17T06:31:05.863Z,87.00
2018-12-17T06:33:34.973Z,39.33
2018-12-17T06:36:04.048Z,29.57
2018-12-17T06:38:33.142Z,25.00
2018-12-17T06:41:02.195Z,24.47
2018-12-17T06:43:31.256Z,32.37
2018-12-17T06:46:00.369Z,26.43
2018-12-17T06:48:29.434Z,27.37
2018-12-17T06:50:58.490Z,27.37
2018-12-17T06:53:27.551Z,26.70
2018-12-17T06:55:56.620Z,23.93
2018-12-17T06:58:26.312Z,27.90
2018-12-17T07:00:55.352Z,26.13
2018-12-17T07:03:24.422Z,19.63
2018-12-17T07:05:53.498Z,27.70
2018-12-17T07:08:22.612Z,27.10
2018-12-17T07:10:51.709Z,25.53
2018-12-17T07:13:20.767Z,29.10
2018-12-17T07:15:49.878Z,33.50
2018-12-17T07:18:18.974Z,28.20
2018-12-17T07:20:48.025Z,24.10
2018-12-17T07:23:17.208Z,24.63
2018-12-17T07:25:46.260Z,22.70
2018-12-17T07:28:15.334Z,85.00
2018-12-17T07:30:44.406Z,36.07
2018-12-17T07:33:13.464Z,50.60
2018-12-17T07:35:42.527Z,37.17
2018-12-17T07:38:11.596Z,34.63
2018-12-17T07:40:40.640Z,25.93
2018-12-17T07:43:09.711Z,34.97
2018-12-17T07:45:38.789Z,29.50
2018-12-17T07:48:07.923Z,28.97
2018-12-17T07:50:37.011Z,28.70
2018-12-17T07:53:06.052Z,34.37
2018-12-17T07:55:35.097Z,27.03
2018-12-17T07:58:04.171Z,38.10
2018-12-17T08:00:33.241Z,34.50
2018-12-17T08:03:02.329Z,27.10
2018-12-17T08:05:31.681Z,32.57
2018-12-17T08:08:00.776Z,37.03
2018-12-17T08:10:29.817Z,31.07
2018-12-17T08:12:58.895Z,34.70
2018-12-17T08:15:27.937Z,36.07
2018-12-17T08:18:21.367Z,31.30
2018-12-17T08:20:51.406Z,35.00
2018-12-17T08:23:20.476Z,28.60
2018-12-17T08:25:49.526Z,30.83
2018-12-17T08:28:18.574Z,34.80
2018-12-17T08:30:47.631Z,31.80
2018-12-17T08:33:16.731Z,29.87
2018-12-17T08:35:45.834Z,25.60
2018-12-17T08:38:14.902Z,25.97
2018-12-17T08:40:43.968Z,27.83
2018-12-17T08:43:13.010Z,31.67
2018-12-17T08:45:42.078Z,32.63
2018-12-17T08:48:11.137Z,32.53
2018-12-17T08:50:40.218Z,34.73
2018-12-17T08:53:09.308Z,33.47
2018-12-17T08:55:38.325Z,37.70
2018-12-17T08:58:07.390Z,29.00
2018-12-17T09:00:36.522Z,29.80
2018-12-17T09:03:05.671Z,32.80
2018-12-17T09:05:34.724Z,26.87
2018-12-17T09:08:03.871Z,34.60
2018-12-17T09:10:32.977Z,33.73
2018-12-17T09:13:02.055Z,85.90
2018-12-17T09:15:31.144Z,50.80
2018-12-17T09:18:00.184Z,36.13
2018-12-17T09:20:29.212Z,30.30
2018-12-17T09:22:58.283Z,38.50
2018-12-17T09:25:27.356Z,36.20
2018-12-17T09:27:56.418Z,35.63
2018-12-17T09:30:25.456Z,33.23
2018-12-17T09:32:54.521Z,34.80
2018-12-17T09:35:23.574Z,35.50
2018-12-17T09:37:52.674Z,33.50
2018-12-17T09:40:21.749Z,37.43
2018-12-17T09:42:50.849Z,39.63
2018-12-17T09:45:19.920Z,36.90
2018-12-17T09:47:48.953Z,38.70
2018-12-17T09:50:18.038Z,39.07
2018-12-17T09:52:47.093Z,40.40
2018-12-17T09:55:16.234Z,34.53
2018-12-17T09:57:45.335Z,38.30
2018-12-17T10:00:14.464Z,36.07
2018-12-17T10:02:43.699Z,33.00
2018-12-17T10:05:12.764Z,35.53
2018-12-17T10:07:41.829Z,36.10
2018-12-17T10:10:10.955Z,37.17
2018-12-17T10:12:39.997Z,44.43
2018-12-17T10:15:09.125Z,36.80
2018-12-17T10:17:38.172Z,40.27
2018-12-17T10:20:07.301Z,37.80
2018-12-17T10:22:36.354Z,35.10
2018-12-17T10:25:05.949Z,39.27
2018-12-17T10:27:34.998Z,46.83
2018-12-17T10:30:05.922Z,107.10
2018-12-17T10:32:34.959Z,61.20
2018-12-17T10:35:04.636Z,40.53
2018-12-17T10:37:33.698Z,34.47
2018-12-17T10:40:02.752Z,42.27
2018-12-17T10:42:31.883Z,30.20
2018-12-17T10:45:00.951Z,35.57
2018-12-17T10:47:29.996Z,36.20
2018-12-17T10:49:59.046Z,29.47
2018-12-17T10:52:28.111Z,33.57
2018-12-17T10:54:57.227Z,34.00
2018-12-17T10:57:26.272Z,34.73
2018-12-17T10:59:55.316Z,39.77
2018-12-17T11:02:26.358Z,30.57
2018-12-17T11:04:57.365Z,35.90
2018-12-17T11:07:26.416Z,31.17
2018-12-17T11:09:55.448Z,37.07
2018-12-17T11:12:24.501Z,33.90
2018-12-17T11:14:53.532Z,32.20
2018-12-17T11:17:22.605Z,36.53
2018-12-17T11:19:51.641Z,33.53
2018-12-17T11:22:20.797Z,37.97
2018-12-17T11:24:49.857Z,31.10
2018-12-17T11:27:18.934Z,31.57
2018-12-17T11:29:47.992Z,31.67
2018-12-17T11:32:17.021Z,31.07
2018-12-17T11:34:46.074Z,30.87
2018-12-17T11:37:15.112Z,31.40
2018-12-17T11:39:44.137Z,32.00
2018-12-17T11:42:13.202Z,30.83
2018-12-17T11:44:42.317Z,26.10
2018-12-17T11:47:11.381Z,32.00
2018-12-17T11:49:40.477Z,28.93
2018-12-17T11:52:09.507Z,28.80
2018-12-17T11:54:38.557Z,29.73
2018-12-17T12:00:16.855Z,28.17
2018-12-17T12:02:45.880Z,30.43
2018-12-17T12:05:14.965Z,32.07
2018-12-17T12:07:43.991Z,31.20
2018-12-17T12:10:13.074Z,35.07
2018-12-17T12:12:42.123Z,35.23
2018-12-17T12:15:11.214Z,30.43
2018-12-17T12:17:40.261Z,35.03
2018-12-17T12:20:09.356Z,35.23
2018-12-17T12:22:38.434Z,37.73
2018-12-17T12:25:07.618Z,31.47
2018-12-17T12:27:36.664Z,30.30
2018-12-17T12:30:09.488Z,35.50
2018-12-17T12:32:38.528Z,36.07
2018-12-17T12:35:08.657Z,37.50
2018-12-17T12:37:37.758Z,42.87
2018-12-17T12:40:08.940Z,39.13
2018-12-17T12:42:38.036Z,35.60
2018-12-17T12:45:07.316Z,32.20
2018-12-17T12:47:36.349Z,33.40
2018-12-17T12:50:08.413Z,36.40
2018-12-17T12:52:37.448Z,31.00
2018-12-17T12:55:06.641Z,36.30
2018-12-17T12:57:35.703Z,35.57
2018-12-17T13:00:08.133Z,35.43
2018-12-17T13:02:37.190Z,41.20
2018-12-17T13:05:06.345Z,36.00
2018-12-17T13:07:37.564Z,35.20
2018-12-17T13:10:07.775Z,33.57
2018-12-17T13:12:36.798Z,35.07
2018-12-17T13:15:06.442Z,35.50
2018-12-17T13:17:35.457Z,42.50
2018-12-17T13:20:05.291Z,36.27
2018-12-17T13:22:34.339Z,43.77
2018-12-17T13:25:04.088Z,45.30
2018-12-17T13:27:33.130Z,38.50
2018-12-17T13:30:02.199Z,39.63
2018-12-17T13:32:31.227Z,41.10
2018-12-17T13:35:00.266Z,39.40
2018-12-17T13:37:29.316Z,41.63
2018-12-17T13:39:58.401Z,44.33
2018-12-17T13:42:27.458Z,37.90
2018-12-17T13:44:56.991Z,40.40
2018-12-17T13:47:26.071Z,37.43
2018-12-17T13:49:57.164Z,36.10
2018-12-17T13:52:31.861Z,37.50
2018-12-17T13:55:00.889Z,35.20
2018-12-17T13:57:29.917Z,40.90
2018-12-17T13:59:58.985Z,39.30
2018-12-17T14:02:28.038Z,34.60
2018-12-17T14:04:57.124Z,30.60
2018-12-17T14:07:26.157Z,37.60
2018-12-17T14:10:00.785Z,31.47
2018-12-17T14:12:29.803Z,33.17
2018-12-17T14:14:58.872Z,37.70
2018-12-17T14:17:33.407Z,32.83
2018-12-17T14:20:08.242Z,33.40
2018-12-17T14:22:37.280Z,34.03
2018-12-17T14:25:06.456Z,32.73
2018-12-17T14:27:35.525Z,37.93
2018-12-17T14:30:08.756Z,30.80
2018-12-17T14:32:37.797Z,31.50
2018-12-17T14:35:07.242Z,32.47
2018-12-17T14:37:38.271Z,31.60
2018-12-17T14:40:08.401Z,30.53
2018-12-17T14:42:37.524Z,28.80
2018-12-17T14:45:07.132Z,32.17
2018-12-17T14:47:36.187Z,29.77
2018-12-17T14:50:05.893Z,28.57
2018-12-17T14:52:34.938Z,30.30
2018-12-17T14:55:05.015Z,27.70
2018-12-17T14:57:34.057Z,31.67
2018-12-17T15:00:04.525Z,29.13
2018-12-17T15:02:33.584Z,27.93
2018-12-17T15:05:02.637Z,31.10
2018-12-17T15:07:31.678Z,27.83
2018-12-17T15:10:00.761Z,34.23
2018-12-17T15:12:29.799Z,48.07
2018-12-17T15:14:58.862Z,37.43
2018-12-17T15:17:27.946Z,37.30
2018-12-17T15:19:57.066Z,35.33
2018-12-17T15:22:26.149Z,36.27
2018-12-17T15:24:55.569Z,41.50
2018-12-17T15:27:24.689Z,39.40
2018-12-17T15:29:53.850Z,38.27
2018-12-17T15:32:23.018Z,45.07
2018-12-17T15:34:52.060Z,34.07
2018-12-17T15:37:21.129Z,34.50
2018-12-17T15:39:50.172Z,39.77
2018-12-17T15:42:19.246Z,50.87
2018-12-17T15:44:48.289Z,47.80
2018-12-17T15:47:17.325Z,53.27
2018-12-17T15:49:46.395Z,59.07
2018-12-17T15:52:15.465Z,53.93
2018-12-17T15:54:44.541Z,68.27
2018-12-17T15:57:13.614Z,56.90
2018-12-17T15:59:42.758Z,58.17
2018-12-17T16:02:11.838Z,63.37
2018-12-17T16:04:40.872Z,57.17
2018-12-17T16:07:09.941Z,53.73
2018-12-17T16:09:39.007Z,48.53
2018-12-17T16:12:08.080Z,42.70
2018-12-17T16:14:37.131Z,42.90
2018-12-17T16:17:06.422Z,54.43
2018-12-17T16:19:35.468Z,48.40
2018-12-17T16:22:04.521Z,48.00
2018-12-17T16:24:33.584Z,49.67
2018-12-17T16:27:02.628Z,48.27
2018-12-17T16:29:31.705Z,45.10
2018-12-17T16:32:00.760Z,50.50
2018-12-17T16:34:29.805Z,40.30
2018-12-17T16:36:59.296Z,48.70
2018-12-17T16:39:28.331Z,43.80
2018-12-17T16:41:57.398Z,44.43
2018-12-17T16:44:26.470Z,49.47
2018-12-17T16:46:55.552Z,52.30
2018-12-17T16:49:24.651Z,59.70
2018-12-17T16:51:53.734Z,56.77
2018-12-17T16:54:22.774Z,55.27
2018-12-17T16:56:51.851Z,59.23
2018-12-17T16:59:20.893Z,62.03
2018-12-17T17:01:49.961Z,61.97
2018-12-17T17:04:19.043Z,59.20
2018-12-17T17:06:48.081Z,55.13
2018-12-17T17:09:17.129Z,68.20
2018-12-17T17:11:46.206Z,68.40
2018-12-17T17:14:15.244Z,72.73
2018-12-17T17:16:44.322Z,86.33
2018-12-17T17:19:13.442Z,74.80
2018-12-17T17:21:45.375Z,88.03
2018-12-17T17:24:14.448Z,69.20
2018-12-17T17:26:43.501Z,82.30
2018-12-17T17:29:12.595Z,75.00
2018-12-17T17:31:41.696Z,78.17
2018-12-17T17:34:10.932Z,74.67
2018-12-17T17:36:40.108Z,71.23
2018-12-17T17:39:09.237Z,56.87
2018-12-17T17:41:38.310Z,70.57
2018-12-17T17:44:07.356Z,69.37
2018-12-17T17:46:36.432Z,69.03
2018-12-17T17:49:05.487Z,72.70
2018-12-17T17:51:34.560Z,66.53
2018-12-17T17:54:03.733Z,74.90
2018-12-17T17:56:32.770Z,61.40
2018-12-17T17:59:01.804Z,66.30
2018-12-17T18:01:30.981Z,70.77
2018-12-17T18:04:00.041Z,74.07
2018-12-17T18:06:29.088Z,64.33
2018-12-17T18:08:58.164Z,68.67
2018-12-17T18:11:27.260Z,71.07
2018-12-17T18:13:56.299Z,74.70
2018-12-17T18:16:25.376Z,71.37
2018-12-17T18:18:54.607Z,65.43
2018-12-17T18:21:23.685Z,62.77
2018-12-17T18:23:54.761Z,64.23
2018-12-17T18:26:23.983Z,64.67
2018-12-17T18:28:53.051Z,62.23
2018-12-17T18:31:22.132Z,59.03
2018-12-17T18:33:51.191Z,60.53
2018-12-17T18:36:20.270Z,68.17
2018-12-17T18:38:49.644Z,56.97
2018-12-17T18:41:18.730Z,50.97
2018-12-17T18:43:48.706Z,51.50
2018-12-17T18:46:17.754Z,46.87
2018-12-17T18:48:46.824Z,52.77
2018-12-17T18:51:15.893Z,54.20
2018-12-17T18:53:44.986Z,58.73
2018-12-17T18:56:14.101Z,53.33
2018-12-17T18:58:43.180Z,55.57
2018-12-17T19:01:12.298Z,47.17
2018-12-17T19:03:41.369Z,44.67
2018-12-17T19:06:10.425Z,43.57
2018-12-17T19:08:39.493Z,49.43
2018-12-17T19:11:08.543Z,55.73
2018-12-17T19:13:37.610Z,52.37
2018-12-17T19:16:06.652Z,53.07
2018-12-17T19:18:35.728Z,54.33
2018-12-17T19:21:04.888Z,52.90
2018-12-17T19:23:33.926Z,50.00
2018-12-17T19:26:03.087Z,44.63
2018-12-17T19:28:32.156Z,48.80
2018-12-17T19:31:01.263Z,57.47
2018-12-17T19:33:30.344Z,53.20
2018-12-17T19:35:59.392Z,59.77
2018-12-17T19:38:28.452Z,58.03
2018-12-17T19:40:57.518Z,57.80
2018-12-17T19:43:26.593Z,51.47
2018-12-17T19:45:55.732Z,57.27
2018-12-17T19:48:24.809Z,63.90
2018-12-17T19:50:53.887Z,57.73
2018-12-17T19:53:22.954Z,53.90
2018-12-17T19:55:52.010Z,54.40
2018-12-17T19:58:21.367Z,54.37
2018-12-17T20:00:50.421Z,83.97
2018-12-17T20:03:19.571Z,142.60
2018-12-17T20:05:48.605Z,116.40
2018-12-17T20:08:17.680Z,90.10
2018-12-17T20:10:46.750Z,71.53
2018-12-17T20:13:15.806Z,83.27
2018-12-17T20:15:44.866Z,89.43
2018-12-17T20:18:13.937Z,79.57
2018-12-17T20:20:42.989Z,76.80
2018-12-17T20:23:12.070Z,78.50
2018-12-17T20:25:41.121Z,68.13
2018-12-17T20:28:10.182Z,83.73
2018-12-17T20:30:39.234Z,84.80
2018-12-17T20:33:08.317Z,87.63
2018-12-17T20:35:37.380Z,77.70
2018-12-17T20:38:06.440Z,94.53
2018-12-17T20:40:35.502Z,95.67
2018-12-17T20:43:04.630Z,78.53
2018-12-17T20:45:33.899Z,93.77
2018-12-17T20:48:02.940Z,98.33
2018-12-17T20:50:32.039Z,114.07
2018-12-17T20:53:01.118Z,124.33
2018-12-17T20:55:30.686Z,96.23
2018-12-17T20:58:00.091Z,92.73
2018-12-17T21:00:29.189Z,86.27
2018-12-17T21:03:00.481Z,85.40
2018-12-17T21:05:29.349Z,101.17
2018-12-17T21:07:58.417Z,100.23
2018-12-17T21:10:27.488Z,83.67
2018-12-17T21:12:56.607Z,88.47
2018-12-17T21:15:25.711Z,66.50
2018-12-17T21:17:54.766Z,79.10
2018-12-17T21:20:23.833Z,68.20
2018-12-17T21:22:52.921Z,62.93
2018-12-17T21:25:21.981Z,87.17
2018-12-17T21:27:51.060Z,75.10
2018-12-17T21:30:20.767Z,145.60
2018-12-17T21:32:49.817Z,109.07
2018-12-17T21:35:18.875Z,89.83
2018-12-17T21:37:47.995Z,80.97
2018-12-17T21:40:17.126Z,71.80
2018-12-17T21:42:46.161Z,69.77
2018-12-17T21:45:15.248Z,64.83
2018-12-17T21:47:44.292Z,68.00
2018-12-17T21:50:13.374Z,69.93
2018-12-17T21:52:42.463Z,57.23
2018-12-17T21:55:11.504Z,71.30
2018-12-17T21:57:40.578Z,58.37
2018-12-17T22:00:09.886Z,52.80
2018-12-17T22:02:38.957Z,55.63
2018-12-17T22:05:08.167Z,54.50
2018-12-17T22:07:37.250Z,54.30
2018-12-17T22:10:07.077Z,68.57
2018-12-17T22:12:36.157Z,66.73
2018-12-17T22:15:05.510Z,57.93
2018-12-17T22:17:34.562Z,69.07
2018-12-17T22:20:04.188Z,54.93
2018-12-17T22:22:34.290Z,60.23
2018-12-17T22:25:03.565Z,51.60
2018-12-17T22:27:32.658Z,52.13
2018-12-17T22:30:02.449Z,58.83
2018-12-17T22:32:31.541Z,51.10
2018-12-17T22:35:00.594Z,54.93
2018-12-17T22:37:29.696Z,45.97
2018-12-17T22:39:58.780Z,48.20
2018-12-17T22:42:27.862Z,50.17
2018-12-17T22:44:56.905Z,52.93
2018-12-17T22:47:25.947Z,47.00
2018-12-17T22:49:55.029Z,50.50
2018-12-17T22:52:24.102Z,50.13
2018-12-17T22:54:53.145Z,57.13
2018-12-17T22:57:22.188Z,54.80
2018-12-17T22:59:51.262Z,55.33
2018-12-17T23:02:20.306Z,54.70
2018-12-17T23:04:49.378Z,54.07
2018-12-17T23:07:18.457Z,53.10
2018-12-17T23:10:05.356Z,45.53
2018-12-17T23:12:52.137Z,51.40
2018-12-17T23:15:38.974Z,56.87
2018-12-17T23:18:07.412Z,53.40
2018-12-17T23:20:36.485Z,50.57
2018-12-17T23:23:05.537Z,52.10
2018-12-17T23:25:34.580Z,55.87
2018-12-17T23:28:03.660Z,53.27
2018-12-17T23:30:32.735Z,64.27
2018-12-17T23:33:01.781Z,58.63
2018-12-17T23:35:30.930Z,59.00
2018-12-17T23:37:59.968Z,60.70
2018-12-17T23:40:29.036Z,65.93
2018-12-17T23:42:58.171Z,65.83
2018-12-17T23:45:27.317Z,59.67
2018-12-17T23:47:56.409Z,62.20
2018-12-17T23:50:25.464Z,63.43
2018-12-17T23:52:54.534Z,62.20
2018-12-17T23:55:23.638Z,53.53
2018-12-17T23:57:52.719Z,57.33
